Flight Track Log - Related Links

Times and Time Zones

All times are in EDT time to prevent confusion due to time zone crossing. See the EJA641 flight status page for this flight to view local times or setup timezone preferences in your user account.

Time Position Orientation Groundspeed Altitude Reporting Facility
EDT Latitude Longitude Course Direction KTS MPH feet Rate Location/Type
Thu 09:52:20 AM 42.4667 -71.3167 216° Southwest 168 193 1,300  Level KA90
Thu 09:53:08 AM 42.4333 -71.3500 216° Southwest 206 237 2,300 2,444 Climbing KA90
Thu 09:54:08 AM 42.3833 -71.3333 166° South 233 268 5,700 3,118 Climbing KA90
Thu 09:55:40 AM 42.3067 -71.2583 144° Southeast 258 297 10,200 2,921 Climbing Boston Center
Thu 09:56:40 AM 42.2433 -71.1864 140° Southeast 271 312 13,100 3,100 Climbing Boston Center
Thu 09:57:40 AM 42.1822 -71.1206 141° Southeast 283 326 16,400 2,850 Climbing Boston Center
Thu 09:58:40 AM 42.1167 -71.0519 142° Southeast 283 326 18,800 2,400 Climbing Boston Center
Thu 09:59:40 AM 42.0492 -70.9778 141° Southeast 297 342 21,200 2,350 Climbing Boston Center
Thu 10:00:40 AM 41.9794 -70.9069 143° Southeast 309 356 23,500 2,250 Climbing Boston Center
Thu 10:01:40 AM 41.9075 -70.8222 139° Southeast 328 377 25,700 2,000 Climbing Boston Center
Thu 10:02:40 AM 41.8275 -70.7742 156° South 333 383 27,500 1,850 Climbing Boston Center
Thu 10:03:40 AM 41.7467 -70.8067 197° South 269 310 29,400 1,700 Climbing Boston Center
Thu 10:04:40 AM 41.6892 -70.8639 217° Southwest 287 330 30,900 1,200 Climbing Boston Center
Thu 10:05:40 AM 41.6189 -70.9183 210° Southwest 287 330 31,800 850 Climbing Boston Center
Thu 10:06:40 AM 41.5469 -70.9783 212° Southwest 305 351 32,600 700 Climbing Boston Center
Thu 10:07:40 AM 41.4997 -71.0486 228° Southwest 311 358 33,200 900 Climbing Boston Center
Thu 10:08:40 AM 41.4322 -71.1581 231° Southwest 323 372 34,400 1,100 Climbing Boston Center
Thu 10:09:40 AM 41.3772 -71.2506 232° Southwest 323 372 35,400 950 Climbing Boston Center
Thu 10:10:40 AM 41.3197 -71.3372 229° Southwest 323 372 36,300 850 Climbing Boston Center
Thu 10:11:40 AM 41.2664 -71.4294 232° Southwest 323 372 37,100 800 Climbing Boston Center
Thu 10:12:40 AM 41.2086 -71.5214 230° Southwest 323 372 37,900 800 Climbing Boston Center
Thu 10:13:40 AM 41.1447 -71.6078 226° Southwest 318 366 38,700 800 Climbing Boston Center
Thu 10:14:40 AM 41.0892 -71.6964 230° Southwest 318 366 39,500 650 Climbing Boston Center
Thu 10:15:40 AM 41.0356 -71.7825 230° Southwest 318 366 40,000 250 Climbing Boston Center
Thu 10:16:40 AM 40.9922 -71.8764 239° Southwest 324 373 40,000  Level Boston Center
Thu 10:17:40 AM 40.9281 -71.9622 225° Southwest 329 379 40,000  Level Boston Center
Thu 10:18:40 AM 40.8681 -72.0558 230° Southwest 335 386 40,000  Level Boston Center
Thu 10:19:40 AM 40.8100 -72.1494 231° Southwest 335 386 40,000  Level Boston Center
Thu 10:20:40 AM 40.7497 -72.2456 230° Southwest 335 386 40,000  Level Boston Center
Thu 10:21:40 AM 40.6853 -72.3333 226° Southwest 335 386 40,000  Level Boston Center
Thu 10:22:40 AM 40.6247 -72.4264 229° Southwest 335 386 40,000  Level Boston Center
Thu 10:23:40 AM 40.5664 -72.5192 230° Southwest 335 386 40,000  Level Boston Center
Thu 10:24:40 AM 40.5039 -72.6147 229° Southwest 335 386 40,000  Level Boston Center
Thu 10:25:52 AM 40.4475 -72.7100 232° Southwest 335 386 40,000  Level Boston Center
Thu 10:26:52 AM 40.3764 -72.8242 231° Southwest 335 386 40,000  Level Boston Center
Thu 10:27:52 AM 40.3156 -72.9164 229° Southwest 335 386 40,000  Level Boston Center
Thu 10:28:52 AM 40.2525 -73.0083 228° Southwest 335 386 40,000  Level Boston Center
Thu 10:31:02 AM 40.1211 -73.2175 231° Southwest 336 387 40,000  Level Washington Center
Thu 10:32:02 AM 40.0564 -73.3092 227° Southwest 341 392 40,000  Level Washington Center
Thu 10:33:02 AM 39.9828 -73.3875 219° Southwest 346 398 40,000  Level Washington Center
Thu 10:34:02 AM 39.9011 -73.4764 220° Southwest 346 398 40,000  Level Washington Center
Thu 10:35:02 AM 39.8294 -73.5544 220° Southwest 351 404 40,000  Level Washington Center
Thu 10:36:02 AM 39.7578 -73.6347 221° Southwest 346 398 40,000  Level Washington Center
Thu 10:37:02 AM 39.6861 -73.7147 221° Southwest 351 404 40,000  Level Washington Center
Thu 10:38:02 AM 39.6144 -73.7947 221° Southwest 351 404 40,000  Level Washington Center
Thu 10:39:02 AM 39.5428 -73.8747 221° Southwest 351 404 40,000  Level Washington Center
Thu 10:40:02 AM 39.4708 -73.9517 220° Southwest 345 397 40,000  Level Washington Center
Thu 10:41:02 AM 39.4011 -74.0283 220° Southwest 345 397 40,000  Level Washington Center
Thu 10:42:02 AM 39.3292 -74.1078 221° Southwest 345 397 40,000  Level Washington Center
Thu 10:43:02 AM 39.2553 -74.1897 221° Southwest 350 403 40,000  Level Washington Center
Thu 10:44:02 AM 39.1853 -74.2661 220° Southwest 350 403 40,000  Level Washington Center
Thu 10:45:02 AM 39.1089 -74.3478 220° Southwest 350 403 40,000  Level Washington Center
Thu 10:46:02 AM 39.0389 -74.4211 219° Southwest 350 403 40,000  Level Washington Center
Thu 10:47:02 AM 38.9644 -74.5050 221° Southwest 350 403 40,000  Level Washington Center
Thu 10:48:02 AM 38.8922 -74.5808 219° Southwest 350 403 40,000  Level Washington Center
Thu 10:49:02 AM 38.8178 -74.6617 220° Southwest 350 403 40,000  Level Washington Center
Thu 10:50:02 AM 38.7456 -74.7400 220° Southwest 350 403 40,000  Level Washington Center
Thu 10:51:02 AM 38.6731 -74.8206 221° Southwest 350 403 40,000  Level Washington Center
Thu 10:52:02 AM 38.6006 -74.8903 217° Southwest 350 403 40,000  Level Washington Center
Thu 10:53:02 AM 38.5281 -74.9706 221° Southwest 350 403 40,000  Level Washington Center
Thu 10:54:02 AM 38.4533 -75.0456 218° Southwest 350 403 40,000  Level Washington Center
Thu 10:55:02 AM 38.3786 -75.1228 219° Southwest 350 403 40,000  Level Washington Center
Thu 10:56:02 AM 38.3017 -75.1922 215° Southwest 344 396 40,000  Level Washington Center
Thu 10:57:02 AM 38.2228 -75.2614 215° Southwest 344 396 40,000  Level Washington Center
Thu 10:58:02 AM 38.1417 -75.3303 214° Southwest 350 403 40,000  Level Washington Center
Thu 10:59:02 AM 38.0583 -75.3992 213° Southwest 355 409 40,000  Level Washington Center
Thu 11:00:02 AM 37.9792 -75.4681 214° Southwest 355 409 40,000  Level Washington Center
Thu 11:01:02 AM 37.8978 -75.5339 213° Southwest 355 409 40,000  Level Washington Center
Thu 11:02:02 AM 37.8144 -75.5997 212° Southwest 350 403 40,000  Level Washington Center
Thu 11:03:02 AM 37.7311 -75.6681 213° Southwest 355 409 40,000  Level Washington Center
Thu 11:04:02 AM 37.6494 -75.7361 213° Southwest 355 409 40,000  Level Washington Center
Thu 11:05:02 AM 37.5661 -75.8092 215° Southwest 355 409 40,000  Level Washington Center
Thu 11:06:02 AM 37.4825 -75.8772 213° Southwest 355 409 40,000  Level Washington Center
Thu 11:07:02 AM 37.4008 -75.9447 213° Southwest 355 409 40,000  Level Washington Center
Thu 11:08:02 AM 37.3214 -76.0122 214° Southwest 350 403 40,000  Level Washington Center
Thu 11:09:02 AM 37.2378 -76.0772 212° Southwest 350 403 40,000  Level Washington Center
Thu 11:10:02 AM 37.1542 -76.1469 214° Southwest 350 403 40,000  Level Washington Center
Thu 11:11:02 AM 37.0683 -76.2114 211° Southwest 355 409 40,000  Level Washington Center
Thu 11:12:02 AM 36.9864 -76.2758 212° Southwest 355 409 40,000  Level Washington Center
Thu 11:13:02 AM 36.9047 -76.3425 213° Southwest 355 409 40,000 1,500 Level Washington Center
Thu 11:14:02 AM 36.8231 -76.4092 213° Southwest 355 409 43,000  Climbing Washington Center
Thu 11:15:02 AM 36.7411 -76.4758 213° Southwest 355 409 40,000 -1,500 Descending Washington Center
Thu 11:16:02 AM 36.6656 -76.5397 214° Southwest 355 409 40,000  Level Washington Center
Thu 11:17:02 AM 36.5836 -76.6086 214° Southwest 355 409 40,000  Level Washington Center
Thu 11:18:02 AM 36.4997 -76.6694 210° Southwest 350 403 40,000  Level Washington Center
Thu 11:19:02 AM 36.4178 -76.7356 213° Southwest 350 403 40,000 150 Level Washington Center
Thu 11:20:02 AM 36.3356 -76.8039 214° Southwest 350 403 40,300 400 Climbing Washington Center
Thu 11:21:02 AM 36.2536 -76.8669 212° Southwest 350 403 40,800 450 Climbing Washington Center
Thu 11:22:02 AM 36.1694 -76.9300 211° Southwest 355 409 41,200 450 Climbing Washington Center
Thu 11:23:02 AM 36.0894 -76.9981 215° Southwest 355 409 41,700 450 Climbing Washington Center
Thu 11:24:02 AM 36.0072 -77.0633 213° Southwest 355 409 42,100 450 Climbing Washington Center
Thu 11:25:02 AM 35.9231 -77.1283 212° Southwest 355 409 42,600 450 Climbing Washington Center
Thu 11:26:02 AM 35.8428 -77.1908 212° Southwest 350 403 43,000 200 Climbing Washington Center
Thu 11:27:02 AM 35.7628 -77.2583 214° Southwest 350 403 43,000  Level Washington Center
Thu 11:28:02 AM 35.6761 -77.3206 210° Southwest 355 409 43,000  Level Washington Center
Thu 11:29:02 AM 35.5917 -77.3878 213° Southwest 355 409 43,000  Level Washington Center
Thu 11:30:02 AM 35.5053 -77.4572 213° Southwest 360 414 43,000  Level Washington Center
Thu 11:31:02 AM 35.4164 -77.5239 211° Southwest 366 421 43,000  Level Washington Center
Thu 11:32:02 AM 35.3319 -77.5958 215° Southwest 371 427 43,000  Level Washington Center
Thu 11:33:02 AM 35.2553 -77.6753 220° Southwest 371 427 43,000  Level Washington Center
Thu 11:34:02 AM 35.1789 -77.7544 220° Southwest 365 420 43,000  Level Washington Center
Thu 11:35:02 AM 35.1000 -77.8361 220° Southwest 365 420 43,000  Level Washington Center
Thu 11:36:02 AM 35.0236 -77.9153 220° Southwest 365 420 43,000  Level Washington Center
Thu 11:37:02 AM 34.9469 -77.9942 220° Southwest 365 420 43,000 -3,786 Level Washington Center
Thu 11:39:28 AM 34.7583 -78.1875 220° Southwest 371 427 30,000 -641 Descending Jacksonville Center
Thu 11:40:28 AM 34.6883 -78.2672 223° Southwest 371 427 40,800 5,150 Climbing Jacksonville Center
Thu 11:41:28 AM 34.6078 -78.3497 220° Southwest 371 427 40,300 -400 Descending Jacksonville Center
Thu 11:42:28 AM 34.5333 -78.4217 219° Southwest 371 427 40,000 -150 Descending Jacksonville Center
Thu 11:43:28 AM 34.4608 -78.4958 220° Southwest 366 421 40,000  Level Jacksonville Center
Thu 11:44:28 AM 34.3842 -78.5753 221° Southwest 366 421 40,000  Level Jacksonville Center
Thu 11:45:28 AM 34.3056 -78.6519 219° Southwest 366 421 40,000 -300 Level Jacksonville Center
Thu 11:46:28 AM 34.2308 -78.7258 219° Southwest 361 415 39,400 -1,000 Descending Jacksonville Center
Thu 11:47:28 AM 34.1561 -78.8022 220° Southwest 361 415 38,000 -1,350 Descending Jacksonville Center
Thu 11:48:28 AM 34.0814 -78.8761 219° Southwest 361 415 36,700 -1,150 Descending Jacksonville Center
Thu 11:49:28 AM 34.0025 -78.9547 220° Southwest 366 421 35,700 -1,000 Descending Jacksonville Center
Thu 11:50:28 AM 33.9233 -79.0308 219° Southwest 366 421 34,700 -850 Descending Jacksonville Center
Thu 11:51:28 AM 33.8464 -79.1092 220° Southwest 366 421 34,000 -350 Descending Jacksonville Center
Thu 11:52:28 AM 33.7653 -79.1853 218° Southwest 371 427 34,000  Level Jacksonville Center
Thu 11:53:28 AM 33.6842 -79.2686 221° Southwest 365 420 34,000  Level Jacksonville Center
Thu 11:54:28 AM 33.6031 -79.3467 219° Southwest 365 420 34,000 -50 Level Jacksonville Center
Thu 11:55:28 AM 33.5217 -79.4272 220° Southwest 376 433 33,900  Descending Jacksonville Center
Thu 11:56:28 AM 33.4425 -79.5050 219° Southwest 376 433 34,000 50 Climbing Jacksonville Center
Thu 11:57:28 AM 33.3631 -79.5850 220° Southwest 376 433 34,000  Level Jacksonville Center
Thu 11:58:28 AM 33.2836 -79.6600 218° Southwest 370 426 34,000  Level Jacksonville Center
Thu 11:59:28 AM 33.2003 -79.7425 220° Southwest 375 432 34,000 -50 Level Jacksonville Center
Thu 12:00:28 PM 33.1186 -79.8197 218° Southwest 380 437 33,900 -350 Descending Jacksonville Center
Thu 12:01:28 PM 33.0392 -79.8992 220° Southwest 380 437 33,300 -1,350 Descending Jacksonville Center
Thu 12:02:28 PM 32.9556 -79.9789 219° Southwest 386 444 31,200 -1,650 Descending Jacksonville Center
Thu 12:03:28 PM 32.8694 -80.0558 217° Southwest 386 444 30,000 -600 Descending Jacksonville Center
Thu 12:04:28 PM 32.7814 -80.1253 214° Southwest 391 450 30,000  Level Jacksonville Center
Thu 12:05:28 PM 32.6911 -80.1972 214° Southwest 391 450 30,000  Level Jacksonville Center
Thu 12:06:28 PM 32.6028 -80.2664 213° Southwest 391 450 30,000  Level Jacksonville Center
Thu 12:07:28 PM 32.5122 -80.3356 213° Southwest 391 450 30,000  Level Jacksonville Center
Thu 12:08:28 PM 32.4197 -80.4069 213° Southwest 391 450 30,000  Level Jacksonville Center
Thu 12:09:28 PM 32.3272 -80.4783 213° Southwest 396 456 30,000  Level Jacksonville Center
Thu 12:10:28 PM 32.2367 -80.5494 214° Southwest 396 456 30,000  Level Jacksonville Center
Thu 12:11:28 PM 32.1461 -80.6206 214° Southwest 389 448 30,000  Level Jacksonville Center
Thu 12:12:28 PM 32.0556 -80.6889 213° Southwest 396 456 30,000 -650 Level Jacksonville Center
Thu 12:13:28 PM 31.9731 -80.7522 213° Southwest 396 456 28,700 -1,800 Descending Jacksonville Center
Thu 12:14:28 PM 31.8678 -80.8303 212° Southwest 401 461 26,400 -1,950 Descending Jacksonville Center
Thu 12:15:28 PM 31.7750 -80.9008 213° Southwest 413 475 24,800 -1,550 Descending Jacksonville Center
Thu 12:16:28 PM 31.6925 -80.9661 214° Southwest 407 468 23,300 -1,700 Descending Jacksonville Center
Thu 12:17:28 PM 31.5914 -81.0389 212° Southwest 401 461 21,400 -2,000 Descending Jacksonville Center
Thu 12:18:28 PM 31.5108 -81.0992 213° Southwest 389 448 19,300 -1,800 Descending Jacksonville Center
Thu 12:19:28 PM 31.4178 -81.1714 214° Southwest 383 441 17,800 -1,500 Descending Jacksonville Center
Thu 12:20:28 PM 31.3394 -81.2336 214° Southwest 383 441 16,300 -1,700 Descending Jacksonville Center
Thu 12:21:28 PM 31.2567 -81.2958 213° Southwest 376 433 14,400 -2,132 Descending Jacksonville Center
Thu 12:21:44 PM 31.2214 -81.3183 209° Southwest 354 407 13,600 -1,900 Descending Jacksonville Center
Thu 12:22:28 PM 31.1739 -81.3556 214° Southwest 364 419 12,500 -1,869 Descending Jacksonville Center
Thu 12:22:45 PM 31.1386 -81.3803 211° Southwest 353 406 11,700 -1,900 Descending Jacksonville Center
Thu 12:23:28 PM 31.0911 -81.4200 216° Southwest 364 419 10,600 -1,574 Descending Jacksonville Center
Thu 12:23:46 PM 31.0558 -81.4422 208° Southwest 351 404 10,100 -600 Descending Jacksonville Center
Thu 12:24:28 PM 31.0125 -81.4842 220° Southwest 364 419 10,000 -98 Descending Jacksonville Center
Thu 12:24:47 PM 30.9814 -81.5139 219° Southwest 337 388 10,000  Level Jacksonville Center
Thu 12:25:28 PM 30.9381 -81.5556 220° Southwest 358 412 10,000 -787 Level Jacksonville Center
Thu 12:25:48 PM 30.9050 -81.5850 217° Southwest 313 360 9,200 -1,900 Descending Jacksonville Center
Thu 12:26:28 PM 30.8719 -81.6169 220° Southwest 336 387 8,100 -2,129 Descending Jacksonville Center
Thu 12:26:50 PM 30.8469 -81.6392 217° Southwest 272 313 7,000 -2,400 Descending Jacksonville Center
Thu 12:27:28 PM 30.8203 -81.6711 226° Southwest 294 338 5,700 -2,656 Descending Jacksonville Center
Thu 12:27:51 PM 30.7997 -81.7003 231° Southwest 245 282 4,300 -2,800 Descending Jacksonville Center
Thu 12:28:28 PM 30.7728 -81.7297 223° Southwest 264 304 2,900 -2,164 Descending Jacksonville Center
Thu 12:28:52 PM 30.7458 -81.7517 215° Southwest 252 290 2,100 -900 Descending Jacksonville Center
Thu 12:29:28 PM 30.7189 -81.7761 218° Southwest 252 290 2,000 -98 Descending Jacksonville Center
Thu 12:29:53 PM 30.6856 -81.8008 213° Southwest 247 284 2,000  Level Jacksonville Center
Thu 12:30:28 PM 30.6608 -81.8203 214° Southwest 252 290 2,000 76 Level Jacksonville Center
Thu 12:31:12 PM 30.6086 -81.8064 167° South 216 249 2,100  Climbing Jacksonville Center
Thu 12:31:28 PM 30.6000 -81.8042 167° South 230 265 2,000 -140 Descending Jacksonville Center
Thu 12:31:55 PM 30.5708 -81.7925 161° South 215 247 2,000 -552 Level Jacksonville Center
Thu 12:32:55 PM 30.5308 -81.7592 144° Southeast 159 183 1,200 -738 Descending Jacksonville Center
Thu 12:33:57 PM 30.5033 -81.7233 132° Southeast 141 162 500 -677 Descending Jacksonville Center
Thu 12:35:00 PM 30.4941 -81.6879 107° East  Level Estimated
Thu 12:42:00 PM 30.4941 -81.6879 192° South  Level Estimated

Login

Don't have an account? Register now (free) for customized features, flight alerts, and more!